sensor_id;sensor_type;location;lat;lon;timestamp;temperature;humidity
4687;DHT22;2357;47.316;-1.348;2022-07-23T00:00:06;17.20;99.90
4687;DHT22;2357;47.316;-1.348;2022-07-23T00:02:33;17.20;99.90
4687;DHT22;2357;47.316;-1.348;2022-07-23T00:04:58;17.20;99.90
4687;DHT22;2357;47.316;-1.348;2022-07-23T00:07:24;17.10;99.90
4687;DHT22;2357;47.316;-1.348;2022-07-23T00:09:50;17.10;99.90
4687;DHT22;2357;47.316;-1.348;2022-07-23T00:12:15;17.10;99.90
4687;DHT22;2357;47.316;-1.348;2022-07-23T00:14:41;17.00;99.90
4687;DHT22;2357;47.316;-1.348;2022-07-23T00:17:06;17.00;99.90
4687;DHT22;2357;47.316;-1.348;2022-07-23T00:19:32;17.00;99.90
4687;DHT22;2357;47.316;-1.348;2022-07-23T00:21:58;16.90;99.90
4687;DHT22;2357;47.316;-1.348;2022-07-23T00:24:23;16.90;99.90
4687;DHT22;2357;47.316;-1.348;2022-07-23T00:26:49;16.90;99.90
4687;DHT22;2357;47.316;-1.348;2022-07-23T00:29:15;16.90;99.90
4687;DHT22;2357;47.316;-1.348;2022-07-23T00:31:40;16.90;99.90
4687;DHT22;2357;47.316;-1.348;2022-07-23T00:34:06;16.80;99.90
4687;DHT22;2357;47.316;-1.348;2022-07-23T00:36:32;16.90;99.90
4687;DHT22;2357;47.316;-1.348;2022-07-23T00:38:58;16.80;99.90
4687;DHT22;2357;47.316;-1.348;2022-07-23T00:41:23;16.80;99.90
4687;DHT22;2357;47.316;-1.348;2022-07-23T00:43:49;16.80;99.90
4687;DHT22;2357;47.316;-1.348;2022-07-23T00:46:24;16.80;99.90
4687;DHT22;2357;47.316;-1.348;2022-07-23T00:48:50;16.80;99.90
4687;DHT22;2357;47.316;-1.348;2022-07-23T00:51:16;16.70;99.90
4687;DHT22;2357;47.316;-1.348;2022-07-23T00:53:43;16.70;99.90
4687;DHT22;2357;47.316;-1.348;2022-07-23T00:56:10;16.60;99.90
4687;DHT22;2357;47.316;-1.348;2022-07-23T00:58:35;16.60;99.90
4687;DHT22;2357;47.316;-1.348;2022-07-23T01:01:02;16.60;99.90
4687;DHT22;2357;47.316;-1.348;2022-07-23T01:03:27;16.60;99.90
4687;DHT22;2357;47.316;-1.348;2022-07-23T01:05:53;16.60;99.90
4687;DHT22;2357;47.316;-1.348;2022-07-23T01:08:19;16.60;99.90
4687;DHT22;2357;47.316;-1.348;2022-07-23T01:10:47;16.60;99.90
4687;DHT22;2357;47.316;-1.348;2022-07-23T01:13:13;16.60;99.90
4687;DHT22;2357;47.316;-1.348;2022-07-23T01:15:39;16.60;99.90
4687;DHT22;2357;47.316;-1.348;2022-07-23T01:18:06;16.60;99.90
4687;DHT22;2357;47.316;-1.348;2022-07-23T01:20:32;16.60;99.90
4687;DHT22;2357;47.316;-1.348;2022-07-23T01:22:58;16.60;99.90
4687;DHT22;2357;47.316;-1.348;2022-07-23T01:25:24;16.50;99.90
4687;DHT22;2357;47.316;-1.348;2022-07-23T01:27:52;16.50;99.90
4687;DHT22;2357;47.316;-1.348;2022-07-23T01:30:18;16.50;99.90
4687;DHT22;2357;47.316;-1.348;2022-07-23T01:32:44;16.50;99.90
4687;DHT22;2357;47.316;-1.348;2022-07-23T01:35:10;16.40;99.90
4687;DHT22;2357;47.316;-1.348;2022-07-23T01:37:37;16.50;99.90
4687;DHT22;2357;47.316;-1.348;2022-07-23T01:40:04;16.50;99.90
4687;DHT22;2357;47.316;-1.348;2022-07-23T01:42:30;16.40;99.90
4687;DHT22;2357;47.316;-1.348;2022-07-23T01:44:55;16.30;99.90
4687;DHT22;2357;47.316;-1.348;2022-07-23T01:47:21;16.40;99.90
4687;DHT22;2357;47.316;-1.348;2022-07-23T01:49:47;16.40;99.90
4687;DHT22;2357;47.316;-1.348;2022-07-23T01:52:12;16.30;99.90
4687;DHT22;2357;47.316;-1.348;2022-07-23T01:54:39;16.30;99.90
4687;DHT22;2357;47.316;-1.348;2022-07-23T01:57:05;16.30;99.90
4687;DHT22;2357;47.316;-1.348;2022-07-23T01:59:31;16.30;99.90
4687;DHT22;2357;47.316;-1.348;2022-07-23T02:01:57;16.30;99.90
4687;DHT22;2357;47.316;-1.348;2022-07-23T02:04:23;16.30;99.90
4687;DHT22;2357;47.316;-1.348;2022-07-23T02:06:50;16.30;99.90
4687;DHT22;2357;47.316;-1.348;2022-07-23T02:09:15;16.30;99.90
4687;DHT22;2357;47.316;-1.348;2022-07-23T02:11:41;16.30;99.90
4687;DHT22;2357;47.316;-1.348;2022-07-23T02:14:07;16.30;99.90
4687;DHT22;2357;47.316;-1.348;2022-07-23T02:16:33;16.30;99.90
4687;DHT22;2357;47.316;-1.348;2022-07-23T02:18:58;16.30;99.90
4687;DHT22;2357;47.316;-1.348;2022-07-23T02:21:24;16.30;99.90
4687;DHT22;2357;47.316;-1.348;2022-07-23T02:23:50;16.30;99.90
4687;DHT22;2357;47.316;-1.348;2022-07-23T02:26:15;16.30;99.90
4687;DHT22;2357;47.316;-1.348;2022-07-23T02:28:41;16.20;99.90
4687;DHT22;2357;47.316;-1.348;2022-07-23T02:31:07;16.30;99.90
4687;DHT22;2357;47.316;-1.348;2022-07-23T02:33:33;16.20;99.90
4687;DHT22;2357;47.316;-1.348;2022-07-23T02:35:59;16.20;99.90
4687;DHT22;2357;47.316;-1.348;2022-07-23T02:38:25;16.20;99.90
4687;DHT22;2357;47.316;-1.348;2022-07-23T02:40:51;16.20;99.90
4687;DHT22;2357;47.316;-1.348;2022-07-23T02:43:17;16.20;99.90
4687;DHT22;2357;47.316;-1.348;2022-07-23T02:45:42;16.20;99.90
4687;DHT22;2357;47.316;-1.348;2022-07-23T02:48:08;16.20;99.90
4687;DHT22;2357;47.316;-1.348;2022-07-23T02:50:34;16.10;99.90
4687;DHT22;2357;47.316;-1.348;2022-07-23T02:52:59;16.20;99.90
4687;DHT22;2357;47.316;-1.348;2022-07-23T02:55:25;16.10;99.90
4687;DHT22;2357;47.316;-1.348;2022-07-23T02:57:51;16.10;99.90
4687;DHT22;2357;47.316;-1.348;2022-07-23T03:00:17;16.10;99.90
4687;DHT22;2357;47.316;-1.348;2022-07-23T03:02:42;16.10;99.90
4687;DHT22;2357;47.316;-1.348;2022-07-23T03:05:08;16.10;99.90
4687;DHT22;2357;47.316;-1.348;2022-07-23T03:07:34;16.10;99.90
4687;DHT22;2357;47.316;-1.348;2022-07-23T03:09:59;16.10;99.90
4687;DHT22;2357;47.316;-1.348;2022-07-23T03:12:25;16.10;99.90
4687;DHT22;2357;47.316;-1.348;2022-07-23T03:14:51;16.00;99.90
4687;DHT22;2357;47.316;-1.348;2022-07-23T03:17:18;16.10;99.90
4687;DHT22;2357;47.316;-1.348;2022-07-23T03:19:43;16.10;99.90
4687;DHT22;2357;47.316;-1.348;2022-07-23T03:22:09;16.10;99.90
4687;DHT22;2357;47.316;-1.348;2022-07-23T03:24:34;16.10;99.90
4687;DHT22;2357;47.316;-1.348;2022-07-23T03:27:23;16.10;99.90
4687;DHT22;2357;47.316;-1.348;2022-07-23T03:29:50;16.10;99.90
4687;DHT22;2357;47.316;-1.348;2022-07-23T03:32:16;16.10;99.90
4687;DHT22;2357;47.316;-1.348;2022-07-23T03:34:41;16.10;99.90
4687;DHT22;2357;47.316;-1.348;2022-07-23T03:37:07;16.10;99.90
4687;DHT22;2357;47.316;-1.348;2022-07-23T03:39:32;16.10;99.90
4687;DHT22;2357;47.316;-1.348;2022-07-23T03:41:58;16.10;99.90
4687;DHT22;2357;47.316;-1.348;2022-07-23T03:44:24;16.10;99.90
4687;DHT22;2357;47.316;-1.348;2022-07-23T03:46:50;16.10;99.90
4687;DHT22;2357;47.316;-1.348;2022-07-23T03:49:15;16.10;99.90
4687;DHT22;2357;47.316;-1.348;2022-07-23T03:51:41;16.00;99.90
4687;DHT22;2357;47.316;-1.348;2022-07-23T03:54:07;16.10;99.90
4687;DHT22;2357;47.316;-1.348;2022-07-23T03:56:32;16.10;99.90
4687;DHT22;2357;47.316;-1.348;2022-07-23T03:58:58;16.10;99.90
4687;DHT22;2357;47.316;-1.348;2022-07-23T04:01:23;16.00;99.90
4687;DHT22;2357;47.316;-1.348;2022-07-23T04:03:49;16.10;99.90
4687;DHT22;2357;47.316;-1.348;2022-07-23T04:06:15;16.00;99.90
4687;DHT22;2357;47.316;-1.348;2022-07-23T04:08:40;16.10;99.90
4687;DHT22;2357;47.316;-1.348;2022-07-23T04:11:06;16.00;99.90
4687;DHT22;2357;47.316;-1.348;2022-07-23T04:13:31;16.00;99.90
4687;DHT22;2357;47.316;-1.348;2022-07-23T04:15:58;16.00;99.90
4687;DHT22;2357;47.316;-1.348;2022-07-23T04:18:24;16.00;99.90
4687;DHT22;2357;47.316;-1.348;2022-07-23T04:20:53;16.00;99.90
4687;DHT22;2357;47.316;-1.348;2022-07-23T04:23:19;15.90;99.90
4687;DHT22;2357;47.316;-1.348;2022-07-23T04:25:44;15.90;99.90
4687;DHT22;2357;47.316;-1.348;2022-07-23T04:28:10;15.90;99.90
4687;DHT22;2357;47.316;-1.348;2022-07-23T04:30:36;15.90;99.90
4687;DHT22;2357;47.316;-1.348;2022-07-23T04:33:01;15.90;99.90
4687;DHT22;2357;47.316;-1.348;2022-07-23T04:35:30;15.80;99.90
4687;DHT22;2357;47.316;-1.348;2022-07-23T04:37:56;15.80;99.90
4687;DHT22;2357;47.316;-1.348;2022-07-23T04:40:22;15.80;99.90
4687;DHT22;2357;47.316;-1.348;2022-07-23T04:42:47;15.80;99.90
4687;DHT22;2357;47.316;-1.348;2022-07-23T04:45:13;15.70;99.90
4687;DHT22;2357;47.316;-1.348;2022-07-23T04:47:38;15.70;99.90
4687;DHT22;2357;47.316;-1.348;2022-07-23T04:50:04;15.70;99.90
4687;DHT22;2357;47.316;-1.348;2022-07-23T04:52:30;15.70;99.90
4687;DHT22;2357;47.316;-1.348;2022-07-23T04:54:55;15.60;99.90
4687;DHT22;2357;47.316;-1.348;2022-07-23T04:57:21;15.70;99.90
4687;DHT22;2357;47.316;-1.348;2022-07-23T04:59:47;15.70;99.90
4687;DHT22;2357;47.316;-1.348;2022-07-23T05:02:12;15.70;99.90
4687;DHT22;2357;47.316;-1.348;2022-07-23T05:04:38;15.70;99.90
4687;DHT22;2357;47.316;-1.348;2022-07-23T05:07:04;15.70;99.90
4687;DHT22;2357;47.316;-1.348;2022-07-23T05:09:29;15.60;99.90
4687;DHT22;2357;47.316;-1.348;2022-07-23T05:11:55;15.60;99.90
4687;DHT22;2357;47.316;-1.348;2022-07-23T05:14:21;15.70;99.90
4687;DHT22;2357;47.316;-1.348;2022-07-23T05:16:47;15.60;99.90
4687;DHT22;2357;47.316;-1.348;2022-07-23T05:19:12;15.70;99.90
4687;DHT22;2357;47.316;-1.348;2022-07-23T05:21:39;15.70;99.90
4687;DHT22;2357;47.316;-1.348;2022-07-23T05:24:05;15.70;99.90
4687;DHT22;2357;47.316;-1.348;2022-07-23T05:26:30;15.60;99.90
4687;DHT22;2357;47.316;-1.348;2022-07-23T05:28:56;15.70;99.90
4687;DHT22;2357;47.316;-1.348;2022-07-23T05:31:22;15.60;99.90
4687;DHT22;2357;47.316;-1.348;2022-07-23T05:33:47;15.70;99.90
4687;DHT22;2357;47.316;-1.348;2022-07-23T05:36:13;15.70;99.90
4687;DHT22;2357;47.316;-1.348;2022-07-23T05:38:39;15.70;99.90
4687;DHT22;2357;47.316;-1.348;2022-07-23T05:41:04;15.70;99.90
4687;DHT22;2357;47.316;-1.348;2022-07-23T05:43:30;15.70;99.90
4687;DHT22;2357;47.316;-1.348;2022-07-23T05:45:56;15.70;99.90
4687;DHT22;2357;47.316;-1.348;2022-07-23T05:48:21;15.70;99.90
4687;DHT22;2357;47.316;-1.348;2022-07-23T05:50:47;15.80;99.90
4687;DHT22;2357;47.316;-1.348;2022-07-23T05:53:13;15.90;99.90
4687;DHT22;2357;47.316;-1.348;2022-07-23T05:55:39;15.90;99.90
4687;DHT22;2357;47.316;-1.348;2022-07-23T05:58:05;16.00;99.90
4687;DHT22;2357;47.316;-1.348;2022-07-23T06:00:31;16.10;99.90
4687;DHT22;2357;47.316;-1.348;2022-07-23T06:02:56;16.10;99.90
4687;DHT22;2357;47.316;-1.348;2022-07-23T06:05:23;16.10;99.90
4687;DHT22;2357;47.316;-1.348;2022-07-23T06:07:49;16.20;99.90
4687;DHT22;2357;47.316;-1.348;2022-07-23T06:10:15;16.20;99.90
4687;DHT22;2357;47.316;-1.348;2022-07-23T06:12:41;16.20;99.90
4687;DHT22;2357;47.316;-1.348;2022-07-23T06:15:07;16.30;99.90
4687;DHT22;2357;47.316;-1.348;2022-07-23T06:17:33;16.30;99.90
4687;DHT22;2357;47.316;-1.348;2022-07-23T06:19:59;16.30;99.90
4687;DHT22;2357;47.316;-1.348;2022-07-23T06:22:25;16.40;99.90
4687;DHT22;2357;47.316;-1.348;2022-07-23T06:24:50;16.50;99.90
4687;DHT22;2357;47.316;-1.348;2022-07-23T06:27:19;16.40;99.90
4687;DHT22;2357;47.316;-1.348;2022-07-23T06:29:45;16.50;99.90
4687;DHT22;2357;47.316;-1.348;2022-07-23T06:32:11;16.50;99.90
4687;DHT22;2357;47.316;-1.348;2022-07-23T06:34:36;16.50;99.90
4687;DHT22;2357;47.316;-1.348;2022-07-23T06:37:02;16.50;99.90
4687;DHT22;2357;47.316;-1.348;2022-07-23T06:39:28;16.50;99.90
4687;DHT22;2357;47.316;-1.348;2022-07-23T06:41:54;16.50;99.90
4687;DHT22;2357;47.316;-1.348;2022-07-23T06:44:19;16.60;99.90
4687;DHT22;2357;47.316;-1.348;2022-07-23T06:46:45;16.60;99.90
4687;DHT22;2357;47.316;-1.348;2022-07-23T06:49:11;16.60;99.90
4687;DHT22;2357;47.316;-1.348;2022-07-23T06:51:36;16.70;99.90
4687;DHT22;2357;47.316;-1.348;2022-07-23T06:54:03;16.80;99.90
4687;DHT22;2357;47.316;-1.348;2022-07-23T06:56:28;16.80;99.90
4687;DHT22;2357;47.316;-1.348;2022-07-23T06:58:54;16.80;99.90
4687;DHT22;2357;47.316;-1.348;2022-07-23T07:01:20;16.90;99.90
4687;DHT22;2357;47.316;-1.348;2022-07-23T07:03:46;16.90;99.90
4687;DHT22;2357;47.316;-1.348;2022-07-23T07:06:12;17.00;99.90
4687;DHT22;2357;47.316;-1.348;2022-07-23T07:08:38;17.10;99.90
4687;DHT22;2357;47.316;-1.348;2022-07-23T07:11:03;17.10;99.90
4687;DHT22;2357;47.316;-1.348;2022-07-23T07:13:29;17.10;99.90
4687;DHT22;2357;47.316;-1.348;2022-07-23T07:15:55;17.20;99.90
4687;DHT22;2357;47.316;-1.348;2022-07-23T07:18:21;17.20;99.90
4687;DHT22;2357;47.316;-1.348;2022-07-23T07:20:46;17.20;99.90
4687;DHT22;2357;47.316;-1.348;2022-07-23T07:23:12;17.30;99.90
4687;DHT22;2357;47.316;-1.348;2022-07-23T07:25:38;17.30;99.90
4687;DHT22;2357;47.316;-1.348;2022-07-23T07:28:04;17.40;99.90
4687;DHT22;2357;47.316;-1.348;2022-07-23T07:30:29;17.40;99.90
4687;DHT22;2357;47.316;-1.348;2022-07-23T07:32:55;17.50;99.90
4687;DHT22;2357;47.316;-1.348;2022-07-23T07:35:21;17.50;99.90
4687;DHT22;2357;47.316;-1.348;2022-07-23T07:37:46;17.60;99.90
4687;DHT22;2357;47.316;-1.348;2022-07-23T07:40:12;17.60;99.90
4687;DHT22;2357;47.316;-1.348;2022-07-23T07:42:49;17.70;99.90
4687;DHT22;2357;47.316;-1.348;2022-07-23T07:45:14;17.70;99.90
4687;DHT22;2357;47.316;-1.348;2022-07-23T07:47:41;17.80;99.90
4687;DHT22;2357;47.316;-1.348;2022-07-23T07:50:07;17.90;99.90
4687;DHT22;2357;47.316;-1.348;2022-07-23T07:52:36;18.00;99.90
4687;DHT22;2357;47.316;-1.348;2022-07-23T07:55:04;17.90;99.90
4687;DHT22;2357;47.316;-1.348;2022-07-23T07:57:30;18.00;99.90
4687;DHT22;2357;47.316;-1.348;2022-07-23T07:59:56;18.10;99.90
4687;DHT22;2357;47.316;-1.348;2022-07-23T08:02:21;18.10;99.90
4687;DHT22;2357;47.316;-1.348;2022-07-23T08:04:47;18.10;99.90
4687;DHT22;2357;47.316;-1.348;2022-07-23T08:07:14;18.10;99.90
4687;DHT22;2357;47.316;-1.348;2022-07-23T08:09:40;18.20;99.90
4687;DHT22;2357;47.316;-1.348;2022-07-23T08:12:05;18.30;99.90
4687;DHT22;2357;47.316;-1.348;2022-07-23T08:14:31;18.30;99.90
4687;DHT22;2357;47.316;-1.348;2022-07-23T08:16:57;18.40;99.90
4687;DHT22;2357;47.316;-1.348;2022-07-23T08:19:22;18.50;99.90
4687;DHT22;2357;47.316;-1.348;2022-07-23T08:21:48;18.60;99.90
4687;DHT22;2357;47.316;-1.348;2022-07-23T08:24:14;18.60;99.90
4687;DHT22;2357;47.316;-1.348;2022-07-23T08:26:39;18.80;99.90
4687;DHT22;2357;47.316;-1.348;2022-07-23T08:29:06;18.80;99.90
4687;DHT22;2357;47.316;-1.348;2022-07-23T08:31:32;18.80;99.90
4687;DHT22;2357;47.316;-1.348;2022-07-23T08:33:59;18.90;99.90
4687;DHT22;2357;47.316;-1.348;2022-07-23T08:36:24;18.90;99.90
4687;DHT22;2357;47.316;-1.348;2022-07-23T08:38:53;19.00;99.90
4687;DHT22;2357;47.316;-1.348;2022-07-23T08:41:19;19.00;99.90
4687;DHT22;2357;47.316;-1.348;2022-07-23T08:43:45;19.10;99.90
4687;DHT22;2357;47.316;-1.348;2022-07-23T08:46:13;19.20;99.90
4687;DHT22;2357;47.316;-1.348;2022-07-23T08:48:39;19.20;99.90
4687;DHT22;2357;47.316;-1.348;2022-07-23T08:51:06;19.30;99.90
4687;DHT22;2357;47.316;-1.348;2022-07-23T08:53:33;19.40;99.90
4687;DHT22;2357;47.316;-1.348;2022-07-23T08:56:02;19.60;99.90
4687;DHT22;2357;47.316;-1.348;2022-07-23T08:58:29;19.70;99.90
4687;DHT22;2357;47.316;-1.348;2022-07-23T09:00:55;19.80;99.90
4687;DHT22;2357;47.316;-1.348;2022-07-23T09:03:29;19.80;99.90
4687;DHT22;2357;47.316;-1.348;2022-07-23T09:05:56;19.80;99.90
4687;DHT22;2357;47.316;-1.348;2022-07-23T09:08:24;19.70;99.90
4687;DHT22;2357;47.316;-1.348;2022-07-23T09:11:00;19.70;99.90
4687;DHT22;2357;47.316;-1.348;2022-07-23T09:13:53;19.70;99.90
4687;DHT22;2357;47.316;-1.348;2022-07-23T09:16:24;19.80;99.90
4687;DHT22;2357;47.316;-1.348;2022-07-23T09:21:37;20.00;99.90
4687;DHT22;2357;47.316;-1.348;2022-07-23T09:24:06;20.10;99.90
4687;DHT22;2357;47.316;-1.348;2022-07-23T09:31:32;20.40;99.90
4687;DHT22;2357;47.316;-1.348;2022-07-23T09:34:10;20.40;99.90
4687;DHT22;2357;47.316;-1.348;2022-07-23T09:36:36;20.50;99.90
4687;DHT22;2357;47.316;-1.348;2022-07-23T09:39:02;20.40;99.90
4687;DHT22;2357;47.316;-1.348;2022-07-23T09:41:35;20.50;99.90
4687;DHT22;2357;47.316;-1.348;2022-07-23T09:44:13;20.60;99.90
4687;DHT22;2357;47.316;-1.348;2022-07-23T09:46:39;20.70;99.90
4687;DHT22;2357;47.316;-1.348;2022-07-23T09:49:23;20.70;99.90
4687;DHT22;2357;47.316;-1.348;2022-07-23T09:51:54;20.70;99.90
4687;DHT22;2357;47.316;-1.348;2022-07-23T09:56:54;20.70;99.90
4687;DHT22;2357;47.316;-1.348;2022-07-23T09:59:29;20.90;99.90
4687;DHT22;2357;47.316;-1.348;2022-07-23T10:01:57;21.10;99.90
4687;DHT22;2357;47.316;-1.348;2022-07-23T10:04:26;21.10;99.90
4687;DHT22;2357;47.316;-1.348;2022-07-23T10:06:53;21.20;99.90
4687;DHT22;2357;47.316;-1.348;2022-07-23T10:09:33;21.40;99.90
4687;DHT22;2357;47.316;-1.348;2022-07-23T10:12:02;21.50;99.90
4687;DHT22;2357;47.316;-1.348;2022-07-23T10:14:42;21.70;99.90
4687;DHT22;2357;47.316;-1.348;2022-07-23T10:17:09;21.70;99.90
4687;DHT22;2357;47.316;-1.348;2022-07-23T10:19:34;21.60;99.90
4687;DHT22;2357;47.316;-1.348;2022-07-23T10:22:01;21.60;99.90
4687;DHT22;2357;47.316;-1.348;2022-07-23T10:27:24;21.70;99.90
4687;DHT22;2357;47.316;-1.348;2022-07-23T10:35:36;22.10;99.90
4687;DHT22;2357;47.316;-1.348;2022-07-23T10:40:35;22.30;99.90
4687;DHT22;2357;47.316;-1.348;2022-07-23T10:43:00;22.20;99.90
4687;DHT22;2357;47.316;-1.348;2022-07-23T10:47:52;22.20;99.90
4687;DHT22;2357;47.316;-1.348;2022-07-23T10:50:26;22.30;99.90
4687;DHT22;2357;47.316;-1.348;2022-07-23T10:58:02;22.40;99.90
4687;DHT22;2357;47.316;-1.348;2022-07-23T11:00:29;22.50;99.90
4687;DHT22;2357;47.316;-1.348;2022-07-23T11:02:56;22.60;99.90
4687;DHT22;2357;47.316;-1.348;2022-07-23T11:05:26;22.50;99.90
4687;DHT22;2357;47.316;-1.348;2022-07-23T11:26:44;23.00;99.90
4687;DHT22;2357;47.316;-1.348;2022-07-23T11:32:03;23.40;99.90
4687;DHT22;2357;47.316;-1.348;2022-07-23T11:34:33;23.50;99.90
4687;DHT22;2357;47.316;-1.348;2022-07-23T11:37:01;23.50;99.90
4687;DHT22;2357;47.316;-1.348;2022-07-23T11:39:28;23.20;99.90
4687;DHT22;2357;47.316;-1.348;2022-07-23T11:41:56;23.20;99.90
4687;DHT22;2357;47.316;-1.348;2022-07-23T11:44:30;23.40;99.90
4687;DHT22;2357;47.316;-1.348;2022-07-23T11:46:56;23.50;99.90
4687;DHT22;2357;47.316;-1.348;2022-07-23T11:49:23;23.70;99.90
4687;DHT22;2357;47.316;-1.348;2022-07-23T11:52:12;23.70;99.90
4687;DHT22;2357;47.316;-1.348;2022-07-23T11:55:01;23.90;99.90
4687;DHT22;2357;47.316;-1.348;2022-07-23T11:57:29;24.00;99.90
4687;DHT22;2357;47.316;-1.348;2022-07-23T12:02:28;24.10;99.90
4687;DHT22;2357;47.316;-1.348;2022-07-23T12:04:53;24.30;99.90
4687;DHT22;2357;47.316;-1.348;2022-07-23T12:07:26;24.50;99.90
4687;DHT22;2357;47.316;-1.348;2022-07-23T12:09:52;24.60;99.90
4687;DHT22;2357;47.316;-1.348;2022-07-23T12:12:18;24.50;99.90
4687;DHT22;2357;47.316;-1.348;2022-07-23T12:14:54;24.90;99.90
4687;DHT22;2357;47.316;-1.348;2022-07-23T12:17:22;24.90;99.90
4687;DHT22;2357;47.316;-1.348;2022-07-23T12:19:52;25.20;99.90
4687;DHT22;2357;47.316;-1.348;2022-07-23T12:22:18;25.40;99.90
4687;DHT22;2357;47.316;-1.348;2022-07-23T12:24:57;25.50;99.90
4687;DHT22;2357;47.316;-1.348;2022-07-23T12:27:24;25.40;99.90
4687;DHT22;2357;47.316;-1.348;2022-07-23T12:29:50;25.50;99.90
4687;DHT22;2357;47.316;-1.348;2022-07-23T12:32:26;25.80;99.90
4687;DHT22;2357;47.316;-1.348;2022-07-23T12:35:05;26.00;99.90
4687;DHT22;2357;47.316;-1.348;2022-07-23T12:37:33;26.00;99.90
4687;DHT22;2357;47.316;-1.348;2022-07-23T12:40:22;26.40;99.90
4687;DHT22;2357;47.316;-1.348;2022-07-23T12:42:50;26.30;99.90
4687;DHT22;2357;47.316;-1.348;2022-07-23T12:45:16;26.70;99.90
4687;DHT22;2357;47.316;-1.348;2022-07-23T12:48:04;26.60;99.90
4687;DHT22;2357;47.316;-1.348;2022-07-23T12:53:46;26.70;99.90
4687;DHT22;2357;47.316;-1.348;2022-07-23T12:56:30;26.70;99.90
4687;DHT22;2357;47.316;-1.348;2022-07-23T13:01:28;26.60;99.90
4687;DHT22;2357;47.316;-1.348;2022-07-23T13:07:00;27.10;99.90
4687;DHT22;2357;47.316;-1.348;2022-07-23T13:09:21;27.20;99.90
4687;DHT22;2357;47.316;-1.348;2022-07-23T13:11:48;27.50;99.90
4687;DHT22;2357;47.316;-1.348;2022-07-23T13:14:15;27.70;99.90
4687;DHT22;2357;47.316;-1.348;2022-07-23T13:16:43;27.60;99.90
4687;DHT22;2357;47.316;-1.348;2022-07-23T13:19:09;27.40;99.90
4687;DHT22;2357;47.316;-1.348;2022-07-23T13:21:35;27.70;99.90
4687;DHT22;2357;47.316;-1.348;2022-07-23T13:24:01;27.70;99.90
4687;DHT22;2357;47.316;-1.348;2022-07-23T13:26:27;27.90;99.90
4687;DHT22;2357;47.316;-1.348;2022-07-23T13:28:53;27.90;99.90
4687;DHT22;2357;47.316;-1.348;2022-07-23T13:31:19;27.70;99.90
4687;DHT22;2357;47.316;-1.348;2022-07-23T13:33:45;27.80;99.90
4687;DHT22;2357;47.316;-1.348;2022-07-23T13:36:11;28.00;99.90
4687;DHT22;2357;47.316;-1.348;2022-07-23T13:38:37;28.10;99.90
4687;DHT22;2357;47.316;-1.348;2022-07-23T13:41:04;28.20;99.90
4687;DHT22;2357;47.316;-1.348;2022-07-23T13:43:30;28.20;99.90
4687;DHT22;2357;47.316;-1.348;2022-07-23T13:45:55;28.40;99.90
4687;DHT22;2357;47.316;-1.348;2022-07-23T13:48:21;28.50;99.90
4687;DHT22;2357;47.316;-1.348;2022-07-23T13:50:48;28.20;99.90
4687;DHT22;2357;47.316;-1.348;2022-07-23T13:53:16;28.40;99.90
4687;DHT22;2357;47.316;-1.348;2022-07-23T13:55:43;28.20;99.90
4687;DHT22;2357;47.316;-1.348;2022-07-23T13:58:09;27.60;99.90
4687;DHT22;2357;47.316;-1.348;2022-07-23T14:00:39;28.00;99.90
4687;DHT22;2357;47.316;-1.348;2022-07-23T14:03:05;28.10;99.90
4687;DHT22;2357;47.316;-1.348;2022-07-23T14:05:31;28.20;99.90
4687;DHT22;2357;47.316;-1.348;2022-07-23T14:07:57;28.00;99.90
4687;DHT22;2357;47.316;-1.348;2022-07-23T14:10:23;27.90;99.90
4687;DHT22;2357;47.316;-1.348;2022-07-23T14:12:50;28.30;99.90
4687;DHT22;2357;47.316;-1.348;2022-07-23T14:15:16;28.20;99.90
4687;DHT22;2357;47.316;-1.348;2022-07-23T14:17:43;28.00;99.90
4687;DHT22;2357;47.316;-1.348;2022-07-23T14:20:11;28.30;99.90
4687;DHT22;2357;47.316;-1.348;2022-07-23T14:22:37;28.70;99.90
4687;DHT22;2357;47.316;-1.348;2022-07-23T14:25:04;29.20;99.90
4687;DHT22;2357;47.316;-1.348;2022-07-23T14:27:30;28.50;99.90
4687;DHT22;2357;47.316;-1.348;2022-07-23T14:29:56;28.70;99.90
4687;DHT22;2357;47.316;-1.348;2022-07-23T14:32:21;28.60;99.90
4687;DHT22;2357;47.316;-1.348;2022-07-23T14:34:48;28.60;99.90
4687;DHT22;2357;47.316;-1.348;2022-07-23T14:37:14;28.40;99.90
4687;DHT22;2357;47.316;-1.348;2022-07-23T14:39:41;28.80;99.90
4687;DHT22;2357;47.316;-1.348;2022-07-23T14:42:07;29.00;99.90
4687;DHT22;2357;47.316;-1.348;2022-07-23T14:44:34;29.10;99.90
4687;DHT22;2357;47.316;-1.348;2022-07-23T14:46:59;29.50;99.90
4687;DHT22;2357;47.316;-1.348;2022-07-23T14:49:26;29.60;99.90
4687;DHT22;2357;47.316;-1.348;2022-07-23T14:51:52;29.70;99.90
4687;DHT22;2357;47.316;-1.348;2022-07-23T14:54:17;29.60;99.90
4687;DHT22;2357;47.316;-1.348;2022-07-23T14:56:45;29.10;99.90
4687;DHT22;2357;47.316;-1.348;2022-07-23T14:59:11;29.10;99.90
4687;DHT22;2357;47.316;-1.348;2022-07-23T15:01:37;28.70;99.90
4687;DHT22;2357;47.316;-1.348;2022-07-23T15:04:04;28.90;99.90
4687;DHT22;2357;47.316;-1.348;2022-07-23T15:06:30;29.00;99.90
4687;DHT22;2357;47.316;-1.348;2022-07-23T15:08:56;29.40;99.90
4687;DHT22;2357;47.316;-1.348;2022-07-23T15:11:21;29.20;99.90
4687;DHT22;2357;47.316;-1.348;2022-07-23T15:13:47;29.20;99.90
4687;DHT22;2357;47.316;-1.348;2022-07-23T15:16:13;29.10;99.90
4687;DHT22;2357;47.316;-1.348;2022-07-23T15:18:39;29.20;99.90
4687;DHT22;2357;47.316;-1.348;2022-07-23T15:21:05;29.50;99.90
4687;DHT22;2357;47.316;-1.348;2022-07-23T15:23:30;29.40;99.90
4687;DHT22;2357;47.316;-1.348;2022-07-23T15:25:56;29.70;99.90
4687;DHT22;2357;47.316;-1.348;2022-07-23T15:28:22;29.80;99.90
4687;DHT22;2357;47.316;-1.348;2022-07-23T15:30:49;29.70;99.90
4687;DHT22;2357;47.316;-1.348;2022-07-23T15:33:16;29.80;99.90
4687;DHT22;2357;47.316;-1.348;2022-07-23T15:35:42;29.90;99.90
4687;DHT22;2357;47.316;-1.348;2022-07-23T15:38:08;29.70;99.90
4687;DHT22;2357;47.316;-1.348;2022-07-23T15:40:34;29.70;99.90
4687;DHT22;2357;47.316;-1.348;2022-07-23T15:43:00;30.00;99.90
4687;DHT22;2357;47.316;-1.348;2022-07-23T15:45:26;29.60;99.90
4687;DHT22;2357;47.316;-1.348;2022-07-23T15:47:51;29.80;99.90
4687;DHT22;2357;47.316;-1.348;2022-07-23T15:50:17;30.00;99.90
4687;DHT22;2357;47.316;-1.348;2022-07-23T15:52:43;29.90;99.90
4687;DHT22;2357;47.316;-1.348;2022-07-23T15:55:09;29.90;99.90
4687;DHT22;2357;47.316;-1.348;2022-07-23T15:57:35;30.20;99.90
4687;DHT22;2357;47.316;-1.348;2022-07-23T16:00:00;30.20;99.90
4687;DHT22;2357;47.316;-1.348;2022-07-23T16:02:26;30.00;99.90
4687;DHT22;2357;47.316;-1.348;2022-07-23T16:04:52;29.10;99.90
4687;DHT22;2357;47.316;-1.348;2022-07-23T16:07:19;29.60;99.90
4687;DHT22;2357;47.316;-1.348;2022-07-23T16:09:45;29.70;99.90
4687;DHT22;2357;47.316;-1.348;2022-07-23T16:12:11;29.90;99.90
4687;DHT22;2357;47.316;-1.348;2022-07-23T16:14:38;30.10;99.90
4687;DHT22;2357;47.316;-1.348;2022-07-23T16:17:03;29.50;99.90
4687;DHT22;2357;47.316;-1.348;2022-07-23T16:19:29;29.50;99.90
4687;DHT22;2357;47.316;-1.348;2022-07-23T16:21:55;29.90;99.90
4687;DHT22;2357;47.316;-1.348;2022-07-23T16:24:21;30.20;99.90
4687;DHT22;2357;47.316;-1.348;2022-07-23T16:26:46;30.30;99.90
4687;DHT22;2357;47.316;-1.348;2022-07-23T16:29:12;30.30;99.90
4687;DHT22;2357;47.316;-1.348;2022-07-23T16:31:38;30.30;99.90
4687;DHT22;2357;47.316;-1.348;2022-07-23T16:34:05;30.40;99.90
4687;DHT22;2357;47.316;-1.348;2022-07-23T16:36:31;30.40;99.90
4687;DHT22;2357;47.316;-1.348;2022-07-23T16:38:59;30.60;99.90
4687;DHT22;2357;47.316;-1.348;2022-07-23T16:41:25;30.80;99.90
4687;DHT22;2357;47.316;-1.348;2022-07-23T16:43:51;31.20;99.90